createdAt,value
2019-02-06T00:02:27.025Z,100727.64
2019-02-06T00:07:45.643Z,100727.17
2019-02-06T00:13:04.539Z,100728.73
2019-02-06T00:18:23.365Z,100720.88
2019-02-06T00:23:42.001Z,100720.34
2019-02-06T00:29:00.827Z,100731.55
2019-02-06T00:34:19.734Z,100722.83
2019-02-06T00:39:38.366Z,100716.53
2019-02-06T00:44:56.932Z,100704.03
2019-02-06T00:50:18.454Z,100700.78
2019-02-06T00:55:37.071Z,100695.34
2019-02-06T01:00:55.700Z,100699.48
2019-02-06T01:06:14.600Z,100700.68
2019-02-06T01:11:33.593Z,100698.54
2019-02-06T01:16:52.208Z,100692.56
2019-02-06T01:22:10.890Z,100687.44
2019-02-06T01:27:29.504Z,100689.06
2019-02-06T01:32:48.557Z,100688.57
2019-02-06T01:38:07.450Z,100695.64
2019-02-06T01:43:26.074Z,100684.30
2019-02-06T01:48:44.887Z,100696.88
2019-02-06T01:54:03.525Z,100686.88
2019-02-06T01:59:22.292Z,100686.59
2019-02-06T02:04:41.008Z,100678.05
2019-02-06T02:09:59.689Z,100671.37
2019-02-06T02:15:19.420Z,100664.28
2019-02-06T02:20:38.037Z,100650.95
2019-02-06T02:25:56.754Z,100631.27
2019-02-06T02:31:18.333Z,100631.27
2019-02-06T02:36:36.810Z,100618.42
2019-02-06T02:41:55.428Z,100612.00
2019-02-06T02:47:14.049Z,100599.76
2019-02-06T02:52:32.595Z,100590.34
2019-02-06T02:57:51.351Z,100589.56
2019-02-06T03:03:26.497Z,100588.83
2019-02-06T03:08:45.117Z,100575.44
2019-02-06T03:14:03.928Z,100568.77
2019-02-06T03:19:22.753Z,100572.90
2019-02-06T03:24:41.650Z,100562.45
2019-02-06T03:30:00.441Z,100531.86
2019-02-06T03:35:19.048Z,100532.55
2019-02-06T03:40:37.640Z,100532.52
2019-02-06T03:45:56.544Z,100531.10
2019-02-06T03:51:15.198Z,100534.77
2019-02-06T03:56:33.787Z,100526.05
2019-02-06T04:01:52.452Z,100536.43
2019-02-06T04:07:11.289Z,100530.12
2019-02-06T04:12:29.928Z,100525.57
2019-02-06T04:17:48.747Z,100517.04
2019-02-06T04:23:07.376Z,100503.45
2019-02-06T04:28:26.512Z,100497.85
2019-02-06T04:33:45.064Z,100497.53
2019-02-06T04:39:05.134Z,100491.37
2019-02-06T04:44:23.731Z,100481.50
2019-02-06T04:49:42.281Z,100479.45
2019-02-06T04:55:00.910Z,100469.02
2019-02-06T05:00:24.623Z,100471.70
2019-02-06T05:05:43.468Z,100471.24
2019-02-06T05:11:02.272Z,100470.80
2019-02-06T05:16:20.766Z,100464.53
2019-02-06T05:21:39.370Z,100465.80
2019-02-06T05:26:58.018Z,100464.88
2019-02-06T05:32:16.637Z,100458.22
2019-02-06T05:37:35.190Z,100460.66
2019-02-06T05:42:54.023Z,100444.56
2019-02-06T05:48:12.578Z,100429.02
2019-02-06T05:53:31.121Z,100437.27
2019-02-06T05:58:49.705Z,100427.10
2019-02-06T06:04:08.613Z,100423.30
2019-02-06T06:09:27.077Z,100425.59
2019-02-06T06:14:45.721Z,100418.42
2019-02-06T06:20:07.438Z,100415.53
2019-02-06T06:25:26.079Z,100410.39
2019-02-06T06:30:47.249Z,100403.61
2019-02-06T06:36:05.308Z,100396.22
2019-02-06T06:47:20.010Z,100406.29
2019-02-06T06:52:40.065Z,100396.37
2019-02-06T06:57:58.678Z,100384.77
2019-02-06T07:03:17.331Z,100388.81
2019-02-06T07:08:36.240Z,100383.09
2019-02-06T07:13:54.955Z,100384.84
2019-02-06T07:19:13.580Z,100389.65
2019-02-06T07:24:32.198Z,100397.30
2019-02-06T07:29:50.745Z,100405.11
2019-02-06T07:35:09.463Z,100396.70
2019-02-06T07:40:28.401Z,100387.66
2019-02-06T07:45:46.940Z,100393.91
2019-02-06T07:51:06.122Z,100399.62
2019-02-06T07:56:24.705Z,100399.62
2019-02-06T08:01:43.334Z,100398.72
2019-02-06T08:07:01.880Z,100397.69
2019-02-06T08:12:20.789Z,100400.17
2019-02-06T08:17:39.798Z,100407.36
2019-02-06T08:22:58.430Z,100398.17
2019-02-06T08:28:17.325Z,100397.56
2019-02-06T08:33:35.932Z,100389.33
2019-02-06T08:38:55.703Z,100398.08
2019-02-06T08:44:14.474Z,100396.26
2019-02-06T08:49:33.097Z,100402.84
2019-02-06T08:54:51.591Z,100398.52
2019-02-06T09:00:16.129Z,100397.94
2019-02-06T09:05:34.752Z,100403.45
2019-02-06T09:10:53.453Z,100413.52
2019-02-06T09:16:12.069Z,100408.96
2019-02-06T09:21:30.701Z,100421.05
2019-02-06T09:26:49.370Z,100411.22
2019-02-06T09:32:07.961Z,100413.64
2019-02-06T09:37:26.500Z,100413.84
2019-02-06T09:42:45.031Z,100419.97
2019-02-06T09:48:03.578Z,100424.95
2019-02-06T09:53:22.491Z,100420.23
2019-02-06T09:58:41.240Z,100417.33
2019-02-06T10:03:59.745Z,100419.43
2019-02-06T10:09:23.075Z,100421.95
2019-02-06T10:14:39.206Z,100427.44
2019-02-06T10:19:58.031Z,100429.92
2019-02-06T10:25:16.689Z,100424.33
2019-02-06T10:30:37.967Z,100428.90
2019-02-06T10:35:56.610Z,100422.64
2019-02-06T10:41:15.222Z,100426.11
2019-02-06T10:46:33.774Z,100420.98
2019-02-06T10:51:52.765Z,100418.34
2019-02-06T10:57:11.482Z,100415.47
2019-02-06T11:02:30.089Z,100406.09
2019-02-06T11:07:48.716Z,100404.92
2019-02-06T11:13:07.697Z,100396.03
2019-02-06T11:18:26.718Z,100387.53
2019-02-06T11:23:45.285Z,100382.89
2019-02-06T11:29:04.004Z,100375.92
2019-02-06T11:34:22.840Z,100366.75
2019-02-06T11:39:41.480Z,100365.06
2019-02-06T11:45:00.326Z,100362.05
2019-02-06T11:50:22.761Z,100360.66
2019-02-06T11:55:41.416Z,100355.79
2019-02-06T12:01:01.859Z,100349.08
2019-02-06T12:06:20.510Z,100340.00
2019-02-06T12:11:39.114Z,100338.84
2019-02-06T12:16:57.983Z,100341.70
2019-02-06T12:22:16.619Z,100328.86
2019-02-06T12:27:35.265Z,100315.59
2019-02-06T12:32:53.820Z,100307.45
2019-02-06T12:38:12.473Z,100304.52
2019-02-06T12:43:31.126Z,100292.25
2019-02-06T12:48:49.780Z,100300.03
2019-02-06T12:54:08.936Z,100293.38
2019-02-06T12:59:27.521Z,100296.36
2019-02-06T13:04:46.072Z,100290.48
2019-02-06T13:10:10.536Z,100275.80
2019-02-06T13:15:29.162Z,100264.17
2019-02-06T13:20:51.107Z,100253.02
2019-02-06T13:26:08.252Z,100249.29
2019-02-06T13:31:26.754Z,100237.66
2019-02-06T13:36:45.302Z,100235.08
2019-02-06T13:42:05.541Z,100225.64
2019-02-06T13:47:24.349Z,100219.25
2019-02-06T13:52:42.964Z,100220.98
2019-02-06T13:58:01.606Z,100208.80
2019-02-06T14:03:20.157Z,100212.19
2019-02-06T14:08:38.713Z,100201.84
2019-02-06T14:13:57.353Z,100196.55
2019-02-06T14:19:15.822Z,100196.55
2019-02-06T14:24:37.339Z,100190.72
2019-02-06T14:30:16.797Z,100182.00
2019-02-06T14:35:49.901Z,100171.30
2019-02-06T14:41:11.716Z,100157.06
2019-02-06T14:47:05.891Z,100156.36
2019-02-06T14:52:58.680Z,100144.30
2019-02-06T14:58:53.628Z,100141.34
2019-02-06T15:04:31.791Z,100129.20
2019-02-06T15:10:14.255Z,100138.34
2019-02-06T15:15:35.798Z,100135.41
2019-02-06T15:21:21.525Z,100127.06
2019-02-06T15:27:04.171Z,100121.08
2019-02-06T15:32:34.331Z,100121.41
2019-02-06T15:38:04.885Z,100118.05
2019-02-06T15:43:32.276Z,100096.65
2019-02-06T15:49:14.757Z,100089.69
2019-02-06T15:54:57.408Z,100093.83
2019-02-06T16:00:39.871Z,100086.77
2019-02-06T16:06:08.998Z,100073.67
2019-02-06T16:11:42.431Z,100069.28
2019-02-06T16:17:20.572Z,100067.49
2019-02-06T16:22:58.055Z,100072.34
2019-02-06T16:28:37.221Z,100064.04
2019-02-06T16:34:07.590Z,100049.63
2019-02-06T16:39:31.738Z,100045.72
2019-02-06T16:44:59.239Z,100048.61
2019-02-06T16:50:29.633Z,100045.39
2019-02-06T16:56:10.467Z,100041.79
2019-02-06T17:01:44.050Z,100049.80
2019-02-06T17:07:20.532Z,100042.89
2019-02-06T17:12:58.165Z,100053.31
2019-02-06T17:18:25.424Z,100056.00
2019-02-06T17:23:58.905Z,100061.19
2019-02-06T17:29:20.446Z,100060.53
2019-02-06T17:34:57.083Z,100040.09
2019-02-06T17:40:36.742Z,100031.08
2019-02-06T17:46:04.270Z,100025.92
2019-02-06T17:51:41.287Z,100016.84
2019-02-06T17:56:59.870Z,100016.44
2019-02-06T18:02:18.492Z,100016.36
2019-02-06T18:07:42.298Z,100025.83
2019-02-06T18:13:00.925Z,100022.59
2019-02-06T18:18:19.541Z,100013.36
2019-02-06T18:23:38.175Z,100021.48
2019-02-06T18:28:56.901Z,100025.13
2019-02-06T18:34:15.796Z,100018.06
2019-02-06T18:39:34.428Z,100009.05
2019-02-06T18:44:53.064Z,99999.16
2019-02-06T18:50:23.471Z,99997.22
2019-02-06T18:55:42.199Z,99999.17
2019-02-06T19:01:00.935Z,99973.53
2019-02-06T19:06:19.731Z,99989.64
2019-02-06T19:11:38.573Z,99972.03
2019-02-06T19:16:57.342Z,99971.36
2019-02-06T19:22:17.563Z,99967.81
2019-02-06T19:27:37.098Z,99952.35
2019-02-06T19:32:55.872Z,99942.48
2019-02-06T19:38:14.487Z,99939.34
2019-02-06T19:43:33.158Z,99934.97
2019-02-06T19:48:53.263Z,99930.05
2019-02-06T19:54:12.159Z,99931.70
2019-02-06T19:59:30.657Z,99931.45
2019-02-06T20:04:49.946Z,99927.55
2019-02-06T20:10:13.195Z,99921.30
2019-02-06T20:15:31.697Z,99911.73
2019-02-06T20:20:50.244Z,99908.12
2019-02-06T20:26:08.893Z,99893.66
2019-02-06T20:31:27.894Z,99891.22
2019-02-06T20:36:46.614Z,99878.40
2019-02-06T20:42:07.409Z,99871.64
2019-02-06T20:47:25.912Z,99877.75
2019-02-06T20:52:44.673Z,99864.77
2019-02-06T20:58:03.301Z,99846.70
2019-02-06T21:03:21.946Z,99846.84
2019-02-06T21:08:40.507Z,99838.78
2019-02-06T21:13:59.197Z,99842.73
2019-02-06T21:19:17.765Z,99829.23
2019-02-06T21:24:36.520Z,99830.74
2019-02-06T21:29:55.325Z,99827.41
2019-02-06T21:35:13.946Z,99812.43
2019-02-06T21:40:37.309Z,99805.66
2019-02-06T21:45:56.037Z,99801.42
2019-02-06T21:51:14.583Z,99805.05
2019-02-06T21:56:37.551Z,99799.27
2019-02-06T22:01:56.166Z,99792.94
2019-02-06T22:07:14.998Z,99788.63
2019-02-06T22:12:36.731Z,99788.82
2019-02-06T22:17:55.763Z,99786.00
2019-02-06T22:23:18.372Z,99782.02
2019-02-06T22:28:36.890Z,99768.55
2019-02-06T22:33:55.500Z,99771.51
2019-02-06T22:39:15.642Z,99767.58
2019-02-06T22:44:34.272Z,99750.93
2019-02-06T22:49:53.782Z,99751.42
2019-02-06T22:55:13.400Z,99742.56
2019-02-06T23:00:51.385Z,99744.38
2019-02-06T23:06:10.166Z,99735.51
2019-02-06T23:11:29.148Z,99730.80
2019-02-06T23:16:47.766Z,99718.00
2019-02-06T23:22:06.562Z,99718.43
2019-02-06T23:27:25.359Z,99710.58
2019-02-06T23:32:43.927Z,99695.49
2019-02-06T23:38:02.474Z,99685.32
2019-02-06T23:43:21.183Z,99674.32
2019-02-06T23:48:39.889Z,99662.62
2019-02-06T23:53:59.031Z,99644.88
2019-02-06T23:59:17.602Z,99637.95
